Time;durP1;ratioP1;P1;durP2;ratioP2;P2;SDS_P1;SDS_P2;PMS_P1;PMS_P2;Temp;Humidity;BMP_temperature;BMP_pressure;BME280_temperature;BME280_humidity;BME280_pressure;Samples;Min_cycle;Max_cycle;Signal;HPM_P1;HPM_P2
2023/03/09 00:00:11;;;;;;;26.67;20.70;;;;;;;-0.60;100.00;98919.78;5049451;28;20107;-67
2023/03/09 00:02:37;;;;;;;26.27;20.77;;;;;;;-0.60;100.00;98914.69;5049698;28;20031;-67
2023/03/09 00:05:03;;;;;;;26.63;20.80;;;;;;;-0.61;100.00;98916.34;5049565;28;20634;-67
2023/03/09 00:07:30;;;;;;;26.17;19.83;;;;;;;-0.62;100.00;98901.91;5048729;28;20115;-67
2023/03/09 00:09:56;;;;;;;27.00;21.07;;;;;;;-0.61;100.00;98892.56;5047522;28;20338;-67
2023/03/09 00:12:22;;;;;;;29.07;21.30;;;;;;;-0.61;100.00;98896.00;5055489;28;20476;-67
2023/03/09 00:14:52;;;;;;;28.97;22.13;;;;;;;-0.62;100.00;98883.19;5054441;28;20063;-67
2023/03/09 00:17:17;;;;;;;28.80;21.10;;;;;;;-0.62;100.00;98893.38;5047313;28;20031;-67
2023/03/09 00:19:43;;;;;;;28.17;21.10;;;;;;;-0.63;100.00;98889.94;5048672;28;20503;-67
2023/03/09 00:22:08;;;;;;;26.97;19.90;;;;;;;-0.62;100.00;98866.28;5048305;28;20033;-67
2023/03/09 00:24:33;;;;;;;26.37;20.03;;;;;;;-0.62;100.00;98879.00;5048915;28;20025;-67
2023/03/09 00:27:01;;;;;;;27.73;20.37;;;;;;;-0.62;100.00;98909.53;5048777;28;20534;-67
2023/03/09 00:29:29;;;;;;;28.73;21.30;;;;;;;-0.62;100.00;98929.00;5049495;28;20115;-67
2023/03/09 00:31:54;;;;;;;26.90;20.63;;;;;;;-0.60;100.00;98927.41;5048487;28;20033;-67
2023/03/09 00:34:20;;;;;;;29.97;21.60;;;;;;;-0.60;100.00;98927.41;5049190;28;20029;-67
2023/03/09 00:36:46;;;;;;;28.43;22.23;;;;;;;-0.60;100.00;98932.50;5048821;28;20087;-67
2023/03/09 00:39:13;;;;;;;29.43;21.63;;;;;;;-0.61;100.00;98938.38;5050036;28;20029;-67
2023/03/09 00:41:39;;;;;;;31.07;22.33;;;;;;;-0.59;100.00;98939.31;5048711;28;20083;-67
2023/03/09 00:44:05;;;;;;;28.90;21.70;;;;;;;-0.60;100.00;98940.13;5049558;28;20032;-67
2023/03/09 00:46:31;;;;;;;27.07;20.97;;;;;;;-0.59;100.00;98946.09;5048677;28;20028;-67
2023/03/09 00:48:57;;;;;;;28.83;21.63;;;;;;;-0.59;100.00;98949.50;5048616;28;20060;-67
2023/03/09 00:51:24;;;;;;;26.90;20.50;;;;;;;-0.61;100.00;98944.34;5048073;28;20029;-67
2023/03/09 00:53:49;;;;;;;29.10;21.37;;;;;;;-0.60;100.00;98957.94;5047822;28;20041;-67
2023/03/09 00:56:18;;;;;;;26.80;21.90;;;;;;;-0.61;100.00;98956.19;5048176;28;20043;-67
2023/03/09 00:58:44;;;;;;;25.97;19.87;;;;;;;-0.60;100.00;98950.31;5047495;28;20031;-67
2023/03/09 01:01:12;;;;;;;28.23;20.50;;;;;;;-0.58;100.00;98956.34;5048146;28;20025;-67
2023/03/09 01:03:37;;;;;;;27.03;20.43;;;;;;;-0.59;100.00;98967.31;5049921;28;20036;-67
2023/03/09 01:06:04;;;;;;;27.73;20.47;;;;;;;-0.58;100.00;98976.72;5067393;28;20500;-67
2023/03/09 01:08:30;;;;;;;28.90;20.33;;;;;;;-0.57;100.00;98978.44;5067284;28;20043;-67
2023/03/09 01:10:55;;;;;;;25.83;19.43;;;;;;;-0.57;100.00;98983.53;5067754;28;20033;-67
2023/03/09 01:13:20;;;;;;;29.77;20.20;;;;;;;-0.57;100.00;98993.72;5065566;28;20658;-67
2023/03/09 01:15:45;;;;;;;27.00;20.27;;;;;;;-0.56;100.00;99015.84;5047984;28;20100;-67
2023/03/09 01:18:11;;;;;;;28.17;20.20;;;;;;;-0.55;100.00;99026.84;5061965;28;20115;-67
2023/03/09 01:20:37;;;;;;;28.10;20.77;;;;;;;-0.56;100.00;99026.00;5066898;28;20369;-67
2023/03/09 01:23:02;;;;;;;26.53;20.13;;;;;;;-0.56;100.00;99025.13;5069641;28;20085;-66
2023/03/09 01:25:27;;;;;;;25.83;19.03;;;;;;;-0.57;100.00;99026.78;5071554;28;20063;-67
2023/03/09 01:27:53;;;;;;;26.67;19.77;;;;;;;-0.56;100.00;99026.00;5057674;28;20028;-67
2023/03/09 01:30:19;;;;;;;29.53;19.30;;;;;;;-0.55;100.00;99017.56;5070929;28;20098;-67
2023/03/09 01:32:44;;;;;;;29.97;21.90;;;;;;;-0.55;100.00;99021.78;5071038;28;20103;-67
2023/03/09 01:35:10;;;;;;;25.53;19.33;;;;;;;-0.56;100.00;99036.19;5071015;28;20519;-67
2023/03/09 01:37:35;;;;;;;26.40;19.37;;;;;;;-0.55;100.00;99044.69;5069571;28;20106;-67
2023/03/09 01:40:01;;;;;;;25.43;18.73;;;;;;;-0.53;100.00;99043.97;5070140;28;20032;-67
2023/03/09 01:42:26;;;;;;;27.43;19.90;;;;;;;-0.52;100.00;99042.31;5070047;28;20035;-67
2023/03/09 01:45:10;;;;;;;25.20;19.73;;;;;;;-0.50;100.00;99053.41;5071212;28;20035;-67
2023/03/09 01:47:35;;;;;;;27.80;20.97;;;;;;;-0.51;100.00;99044.91;5070108;28;20387;-67
2023/03/09 01:50:02;;;;;;;27.20;20.23;;;;;;;-0.50;100.00;99049.19;5070462;28;20029;-67
2023/03/09 01:52:32;;;;;;;26.33;19.47;;;;;;;-0.50;100.00;99056.84;5069491;28;20047;-67
2023/03/09 01:55:03;;;;;;;29.95;20.73;;;;;;;-0.49;100.00;99052.63;5070550;28;20021;-67
2023/03/09 01:57:41;;;;;;;28.48;21.30;;;;;;;-0.50;100.00;99061.91;5070252;28;20017;-67
2023/03/09 02:00:13;;;;;;;29.70;21.10;;;;;;;-0.49;100.00;99065.34;5070075;28;20052;-67
2023/03/09 02:02:42;;;;;;;28.10;21.17;;;;;;;-0.49;100.00;99071.28;5070710;28;20052;-67
2023/03/09 02:05:12;;;;;;;28.70;20.07;;;;;;;-0.47;100.00;99067.97;5063179;28;20017;-66
2023/03/09 02:07:42;;;;;;;28.05;20.63;;;;;;;-0.46;100.00;99079.88;5070246;28;20117;-67
2023/03/09 02:10:26;;;;;;;31.70;21.27;;;;;;;-0.44;100.00;99102.06;5055551;28;20028;-67
2023/03/09 02:12:56;;;;;;;29.87;21.17;;;;;;;-0.42;100.00;99099.59;5061896;28;20025;-67
2023/03/09 02:15:22;;;;;;;30.13;21.17;;;;;;;-0.43;100.00;99096.16;5070208;28;20016;-67
2023/03/09 02:17:48;;;;;;;28.70;21.87;;;;;;;-0.42;100.00;99087.75;5069977;28;20365;-67
2023/03/09 02:20:41;;;;;;;30.73;21.60;;;;;;;-0.42;100.00;99079.22;5069799;28;20020;-67
2023/03/09 02:23:21;;;;;;;31.47;22.50;;;;;;;-0.43;100.00;99077.50;5056515;28;20037;-67
2023/03/09 02:25:56;;;;;;;29.97;21.17;;;;;;;-0.43;100.00;99073.25;5070193;28;20056;-67
2023/03/09 02:28:22;;;;;;;33.70;24.00;;;;;;;-0.42;100.00;99079.22;5069888;28;20021;-67
2023/03/09 02:30:49;;;;;;;32.37;23.33;;;;;;;-0.42;100.00;99077.56;5069977;28;20089;-67
2023/03/09 02:33:27;;;;;;;31.60;23.10;;;;;;;-0.40;100.00;99092.91;5067941;28;20020;-67
2023/03/09 02:35:54;;;;;;;32.60;22.60;;;;;;;-0.40;100.00;99092.91;5069247;28;20473;-67
2023/03/09 02:38:19;;;;;;;34.00;22.80;;;;;;;-0.41;100.00;99099.66;5057402;28;20443;-67
2023/03/09 02:40:45;;;;;;;30.77;21.53;;;;;;;-0.41;100.00;99099.66;5069343;28;20334;-67
2023/03/09 02:43:11;;;;;;;33.93;23.13;;;;;;;-0.41;100.00;99108.97;5069960;28;20048;-67
2023/03/09 02:45:38;;;;;;;34.23;25.10;;;;;;;-0.41;100.00;99107.31;5068916;28;20409;-67
2023/03/09 02:48:03;;;;;;;34.37;23.90;;;;;;;-0.40;100.00;99109.06;5044533;28;20107;-67
2023/03/09 02:50:28;;;;;;;33.90;23.33;;;;;;;-0.39;100.00;99102.28;5068695;28;20427;-67
2023/03/09 02:52:54;;;;;;;35.43;23.53;;;;;;;-0.39;100.00;99109.91;5069655;28;20056;-67
2023/03/09 02:55:19;;;;;;;34.43;23.40;;;;;;;-0.39;100.00;99104.84;5068549;28;20024;-67
2023/03/09 02:57:44;;;;;;;38.53;25.07;;;;;;;-0.38;100.00;99111.69;5050033;28;20075;-67
2023/03/09 03:00:13;;;;;;;35.27;24.50;;;;;;;-0.38;100.00;99112.53;5062088;28;20444;-67
2023/03/09 03:02:38;;;;;;;34.77;23.67;;;;;;;-0.38;100.00;99114.22;5044191;28;20032;-67
2023/03/09 03:05:05;;;;;;;35.97;24.07;;;;;;;-0.38;100.00;99119.31;5067809;28;20506;-67
2023/03/09 03:07:31;;;;;;;37.70;25.37;;;;;;;-0.38;100.00;99111.69;5069313;28;20020;-67
2023/03/09 03:09:56;;;;;;;37.10;24.90;;;;;;;-0.40;100.00;99103.09;5068665;28;20024;-67
2023/03/09 03:12:21;;;;;;;38.47;24.43;;;;;;;-0.39;100.00;99118.44;5068840;28;20023;-67
2023/03/09 03:14:47;;;;;;;34.67;24.57;;;;;;;-0.40;100.00;99119.25;5055725;28;20025;-67
2023/03/09 03:17:12;;;;;;;34.70;24.33;;;;;;;-0.38;100.00;99114.22;5062579;28;20029;-67
2023/03/09 03:19:37;;;;;;;35.60;23.53;;;;;;;-0.38;100.00;99111.69;5049514;28;20450;-67
2023/03/09 03:22:03;;;;;;;37.97;25.50;;;;;;;-0.38;100.00;99104.91;5048996;28;20037;-67
2023/03/09 03:24:29;;;;;;;38.43;25.23;;;;;;;-0.39;100.00;99117.56;5061597;28;20020;-67
2023/03/09 03:26:55;;;;;;;34.57;23.93;;;;;;;-0.39;100.00;99130.28;5068760;28;20040;-67
2023/03/09 03:29:21;;;;;;;35.93;24.93;;;;;;;-0.39;100.00;99130.28;5069212;28;20016;-67
2023/03/09 03:31:46;;;;;;;37.53;25.10;;;;;;;-0.40;100.00;99143.81;5068428;28;20025;-67
2023/03/09 03:34:11;;;;;;;40.67;26.33;;;;;;;-0.38;100.00;99147.31;5068410;28;20029;-67
2023/03/09 03:36:36;;;;;;;38.77;25.90;;;;;;;-0.38;100.00;99147.31;5068154;28;20021;-67
2023/03/09 03:39:03;;;;;;;40.40;26.33;;;;;;;-0.39;100.00;99158.28;5069185;28;20527;-67
2023/03/09 03:41:28;;;;;;;39.60;25.47;;;;;;;-0.40;100.00;99174.38;5067982;28;20066;-67
2023/03/09 03:43:54;;;;;;;40.23;27.23;;;;;;;-0.39;100.00;99183.75;5056250;28;20032;-67
2023/03/09 03:46:19;;;;;;;40.30;27.33;;;;;;;-0.40;100.00;99180.34;5067512;28;20021;-67
2023/03/09 03:48:45;;;;;;;42.80;27.53;;;;;;;-0.39;100.00;99188.84;5068274;28;20020;-67
2023/03/09 03:51:10;;;;;;;38.20;26.50;;;;;;;-0.38;100.00;99193.16;5067840;28;20024;-67
2023/03/09 03:53:35;;;;;;;41.07;26.50;;;;;;;-0.38;100.00;99198.25;5067932;28;20048;-67
2023/03/09 03:56:02;;;;;;;43.37;27.87;;;;;;;-0.40;100.00;99190.53;5067803;28;20023;-67
2023/03/09 03:58:28;;;;;;;41.33;27.13;;;;;;;-0.40;100.00;99189.66;5067694;28;20130;-67
2023/03/09 04:00:53;;;;;;;43.07;28.47;;;;;;;-0.40;100.00;99184.56;5066120;28;20119;-67
2023/03/09 04:03:18;;;;;;;47.97;29.00;;;;;;;-0.39;100.00;99199.03;5059505;28;20029;-67
2023/03/09 04:05:45;;;;;;;42.77;28.47;;;;;;;-0.38;100.00;99198.25;5065650;28;20358;-67
2023/03/09 04:08:10;;;;;;;44.53;29.57;;;;;;;-0.39;100.00;99199.03;5067588;28;20308;-67
2023/03/09 04:10:38;;;;;;;46.03;30.13;;;;;;;-0.39;100.00;99197.34;5065500;28;20054;-67
2023/03/09 04:13:03;;;;;;;50.00;29.83;;;;;;;-0.38;100.00;99199.09;5068071;28;20199;-67
2023/03/09 04:15:28;;;;;;;43.53;28.80;;;;;;;-0.39;100.00;99201.56;5067478;28;20063;-67
2023/03/09 04:17:54;;;;;;;44.73;29.90;;;;;;;-0.40;100.00;99210.91;5055950;28;20032;-67
2023/03/09 04:20:19;;;;;;;41.67;27.77;;;;;;;-0.39;100.00;99216.84;5048675;28;20028;-67
2023/03/09 04:22:48;;;;;;;46.73;29.27;;;;;;;-0.39;100.00;99211.75;5048413;28;20028;-67
2023/03/09 04:25:14;;;;;;;45.37;29.37;;;;;;;-0.40;100.00;99220.19;5048631;28;20012;-67
2023/03/09 04:27:40;;;;;;;48.13;30.10;;;;;;;-0.40;100.00;99225.28;5048513;28;20203;-67
2023/03/09 04:30:06;;;;;;;50.37;30.80;;;;;;;-0.39;100.00;99221.94;5048470;28;20013;-67
2023/03/09 04:32:31;;;;;;;45.57;30.07;;;;;;;-0.39;100.00;99227.91;5047456;28;20025;-67
2023/03/09 04:34:56;;;;;;;49.07;30.53;;;;;;;-0.40;100.00;99225.28;5047918;28;20025;-67
2023/03/09 04:37:22;;;;;;;50.83;30.43;;;;;;;-0.39;100.00;99227.03;5060655;28;20024;-67
2023/03/09 04:39:47;;;;;;;48.07;32.23;;;;;;;-0.39;100.00;99238.09;5067039;28;20055;-67
2023/03/09 04:42:12;;;;;;;52.90;31.37;;;;;;;-0.39;100.00;99240.63;5066952;28;20052;-67
2023/03/09 04:44:37;;;;;;;54.77;31.57;;;;;;;-0.39;100.00;99237.22;5067065;28;20024;-67
2023/03/09 04:47:03;;;;;;;54.57;33.23;;;;;;;-0.39;100.00;99243.19;5055614;28;20036;-67
2023/03/09 04:49:29;;;;;;;52.27;32.73;;;;;;;-0.38;100.00;99251.69;5048198;28;20028;-67
2023/03/09 04:51:55;;;;;;;49.37;30.90;;;;;;;-0.39;100.00;99258.47;5047178;28;20055;-67
2023/03/09 04:54:20;;;;;;;54.70;31.70;;;;;;;-0.39;100.00;99263.56;5048193;28;20037;-67
2023/03/09 04:56:45;;;;;;;51.87;31.30;;;;;;;-0.38;100.00;99264.44;5047691;28;20052;-67
2023/03/09 04:59:10;;;;;;;54.73;32.40;;;;;;;-0.40;100.00;99261.81;5048134;28;20046;-67
2023/03/09 05:01:36;;;;;;;55.10;33.37;;;;;;;-0.38;100.00;99272.06;5047926;28;20021;-67
2023/03/09 05:04:01;;;;;;;55.60;33.40;;;;;;;-0.38;100.00;99265.28;5048187;28;20040;-67
2023/03/09 05:06:26;;;;;;;60.13;34.17;;;;;;;-0.38;100.00;99272.06;5049017;28;20161;-67
2023/03/09 05:08:52;;;;;;;53.70;32.60;;;;;;;-0.39;100.00;99277.94;5047651;28;20025;-67
2023/03/09 05:11:17;;;;;;;55.60;32.67;;;;;;;-0.38;100.00;99274.63;5047491;28;20086;-67
2023/03/09 05:13:42;;;;;;;57.53;33.83;;;;;;;-0.40;100.00;99281.28;5064524;28;20237;-67
2023/03/09 05:16:08;;;;;;;57.77;33.70;;;;;;;-0.40;100.00;99284.72;5067157;28;20426;-67
2023/03/09 05:18:34;;;;;;;58.27;34.90;;;;;;;-0.39;100.00;99300.84;5049431;28;20029;-67
2023/03/09 05:21:04;;;;;;;59.20;34.50;;;;;;;-0.41;100.00;99300.78;5047534;28;20029;-67
2023/03/09 05:23:29;;;;;;;58.60;35.30;;;;;;;-0.40;100.00;99309.28;5048304;28;20070;-67
2023/03/09 05:25:56;;;;;;;65.53;35.87;;;;;;;-0.40;100.00;99309.28;5047245;28;20021;-67
2023/03/09 05:28:24;;;;;;;62.90;35.40;;;;;;;-0.40;100.00;99316.94;5047634;28;20351;-67
2023/03/09 05:30:50;;;;;;;65.20;36.10;;;;;;;-0.40;100.00;99324.56;5047582;28;20028;-67
2023/03/09 05:33:15;;;;;;;63.87;37.27;;;;;;;-0.40;100.00;99316.94;5047384;28;20021;-67
2023/03/09 05:35:41;;;;;;;67.27;38.60;;;;;;;-0.40;100.00;99311.84;5048058;28;20028;-67
2023/03/09 05:38:06;;;;;;;66.40;37.03;;;;;;;-0.39;100.00;99305.94;5052775;28;20392;-67
2023/03/09 05:40:31;;;;;;;61.63;36.23;;;;;;;-0.40;100.00;99316.94;5055215;28;20029;-67
2023/03/09 05:42:56;;;;;;;68.87;38.13;;;;;;;-0.39;100.00;99308.50;5051245;28;20021;-67
2023/03/09 05:45:22;;;;;;;63.10;36.33;;;;;;;-0.39;100.00;99304.28;5055515;28;20025;-67
2023/03/09 05:47:47;;;;;;;62.03;37.03;;;;;;;-0.39;100.00;99311.03;5049202;28;20021;-67
2023/03/09 05:50:12;;;;;;;63.50;38.03;;;;;;;-0.39;100.00;99303.41;5067574;28;20051;-67
2023/03/09 05:52:38;;;;;;;63.80;38.63;;;;;;;-0.40;100.00;99301.66;5057827;28;20056;-67
2023/03/09 05:55:03;;;;;;;63.13;38.40;;;;;;;-0.41;100.00;99299.88;5047409;28;20082;-67
2023/03/09 05:57:29;;;;;;;65.50;37.80;;;;;;;-0.43;100.00;99314.25;5054598;28;20480;-67
2023/03/09 05:59:54;;;;;;;63.47;37.97;;;;;;;-0.44;100.00;99315.00;5052830;28;20453;-67
2023/03/09 06:02:19;;;;;;;63.73;40.00;;;;;;;-0.43;100.00;99324.41;5047479;28;20021;-67
2023/03/09 06:04:49;;;;;;;69.13;40.33;;;;;;;-0.42;100.00;99333.78;5048413;28;20040;-67
2023/03/09 06:07:15;;;;;;;70.00;39.53;;;;;;;-0.40;100.00;99339.84;5047579;28;20021;-67
2023/03/09 06:09:40;;;;;;;64.50;38.83;;;;;;;-0.40;100.00;99340.72;5051353;28;20043;-67
2023/03/09 06:12:05;;;;;;;62.33;38.00;;;;;;;-0.39;100.00;99339.03;5048753;28;20480;-67
2023/03/09 06:14:31;;;;;;;65.13;37.33;;;;;;;-0.39;100.00;99339.03;5058060;28;20031;-67
2023/03/09 06:16:57;;;;;;;65.90;38.43;;;;;;;-0.38;100.00;99340.81;5067065;28;20498;-67
2023/03/09 06:19:23;;;;;;;65.10;36.67;;;;;;;-0.37;100.00;99342.53;5070185;28;20100;-67
2023/03/09 06:21:48;;;;;;;62.70;38.90;;;;;;;-0.37;100.00;99348.53;5069235;28;20099;-67
2023/03/09 06:24:14;;;;;;;66.20;38.17;;;;;;;-0.37;100.00;99362.91;5070440;28;20472;-67
2023/03/09 06:26:39;;;;;;;69.37;38.10;;;;;;;-0.35;100.00;99361.31;5061214;28;20029;-67
2023/03/09 06:29:04;;;;;;;64.43;38.10;;;;;;;-0.33;100.00;99364.84;5042146;28;20021;-67
2023/03/09 06:31:31;;;;;;;62.87;37.03;;;;;;;-0.33;100.00;99363.94;5045756;28;20373;-67
2023/03/09 06:33:57;;;;;;;63.67;36.97;;;;;;;-0.31;100.00;99373.44;5044430;28;20044;-67
2023/03/09 06:36:22;;;;;;;61.77;37.53;;;;;;;-0.31;100.00;99373.44;5047610;28;20024;-67
2023/03/09 06:38:47;;;;;;;63.67;35.90;;;;;;;-0.30;100.00;99375.16;5037315;28;20620;-67
2023/03/09 06:41:14;;;;;;;67.00;39.00;;;;;;;-0.27;100.00;99380.41;5043365;28;20025;-67
2023/03/09 06:43:40;;;;;;;64.77;37.47;;;;;;;-0.27;100.00;99380.41;5036056;28;20111;-67
2023/03/09 06:46:09;;;;;;;66.80;37.80;;;;;;;-0.27;100.00;99390.59;5049788;28;20086;-67
2023/03/09 06:48:35;;;;;;;66.23;37.50;;;;;;;-0.25;100.00;99393.22;5053035;28;20028;-67
2023/03/09 06:51:00;;;;;;;63.43;38.70;;;;;;;-0.23;100.00;99400.97;5055339;28;20092;-67
2023/03/09 06:53:25;;;;;;;61.30;36.40;;;;;;;-0.22;100.00;99405.25;5051432;28;20049;-67
2023/03/09 06:55:50;;;;;;;62.87;36.47;;;;;;;-0.21;100.00;99407.00;5062710;28;20032;-67
2023/03/09 06:58:16;;;;;;;63.40;35.93;;;;;;;-0.21;100.00;99409.53;5068444;28;20016;-67
2023/03/09 07:00:43;;;;;;;64.87;38.67;;;;;;;-0.19;100.00;99423.22;5064468;28;20366;-67
2023/03/09 07:03:15;;;;;;;68.23;37.77;;;;;;;-0.19;100.00;99435.97;5051069;28;20024;-67
2023/03/09 07:05:40;;;;;;;66.67;37.77;;;;;;;-0.18;100.00;99430.09;5049122;28;20025;-67
2023/03/09 07:08:05;;;;;;;62.80;36.37;;;;;;;-0.19;100.00;99443.59;5045728;28;20041;-67
2023/03/09 07:10:30;;;;;;;63.23;37.87;;;;;;;-0.20;100.00;99452.94;5052581;28;20598;-67
2023/03/09 07:12:56;;;;;;;60.27;36.13;;;;;;;-0.18;100.00;99458.13;5045619;28;20082;-67
2023/03/09 07:15:21;;;;;;;62.30;37.10;;;;;;;-0.18;100.00;99460.66;5049236;28;20458;-67
2023/03/09 07:17:46;;;;;;;61.97;35.93;;;;;;;-0.17;100.00;99465.81;5048232;28;20118;-65
2023/03/09 07:20:12;;;;;;;59.27;35.53;;;;;;;-0.17;100.00;99468.38;5049706;28;20025;-66
2023/03/09 07:22:38;;;;;;;60.33;35.43;;;;;;;-0.14;100.00;99488.91;5057268;28;20040;-66
2023/03/09 07:25:03;;;;;;;63.53;35.53;;;;;;;-0.14;100.00;99493.13;5063793;28;20032;-66
2023/03/09 07:27:30;;;;;;;59.57;34.80;;;;;;;-0.12;100.00;99491.53;5054364;28;20036;-66
2023/03/09 07:29:55;;;;;;;60.50;34.90;;;;;;;-0.12;100.00;99488.97;5062507;28;20020;-66
2023/03/09 07:32:20;;;;;;;58.87;34.17;;;;;;;-0.11;100.00;99489.88;5051768;28;20025;-66
2023/03/09 07:34:45;;;;;;;61.90;34.53;;;;;;;-0.12;100.00;99488.97;5057809;28;20314;-66
2023/03/09 07:37:11;;;;;;;61.80;35.10;;;;;;;-0.10;100.00;99495.03;5064789;28;20464;-66
2023/03/09 07:39:36;;;;;;;60.13;34.77;;;;;;;-0.08;100.00;99503.66;5042637;28;20028;-66
2023/03/09 07:42:02;;;;;;;56.97;33.17;;;;;;;-0.05;100.00;99508.91;5046246;28;20151;-66
2023/03/09 07:44:28;;;;;;;57.83;34.47;;;;;;;-0.04;100.00;99515.75;5059544;28;20077;-66
2023/03/09 07:46:53;;;;;;;59.10;35.13;;;;;;;-0.01;100.00;99521.00;5051429;28;20040;-66
2023/03/09 07:49:18;;;;;;;58.67;34.63;;;;;;;-0.02;100.00;99521.78;5033453;28;20378;-66
2023/03/09 07:51:44;;;;;;;55.03;33.03;;;;;;;0.01;100.00;99522.75;5038806;28;20056;-66
2023/03/09 07:54:10;;;;;;;59.03;34.43;;;;;;;0.02;100.00;99529.63;5037149;28;20064;-66
2023/03/09 07:56:35;;;;;;;59.37;34.00;;;;;;;0.03;100.00;99526.25;5035055;28;20021;-66
2023/03/09 07:59:00;;;;;;;56.53;33.00;;;;;;;0.06;100.00;99523.88;5050936;28;20048;-66
2023/03/09 08:01:27;;;;;;;52.33;32.27;;;;;;;0.06;100.00;99518.78;5061088;28;20140;-66
2023/03/09 08:03:52;;;;;;;57.20;34.27;;;;;;;0.07;100.00;99521.41;5056670;28;20428;-66
2023/03/09 08:06:19;;;;;;;54.77;33.00;;;;;;;0.07;100.00;99529.03;5056153;28;20028;-66
2023/03/09 08:08:45;;;;;;;59.70;34.30;;;;;;;0.11;100.00;99535.19;5047625;28;20303;-66
2023/03/09 08:11:11;;;;;;;59.27;34.27;;;;;;;0.12;100.00;99539.50;5036535;28;20433;-66
2023/03/09 08:13:36;;;;;;;59.03;32.83;;;;;;;0.14;100.00;99550.66;5033669;28;20028;-66
2023/03/09 08:16:04;;;;;;;55.27;32.77;;;;;;;0.16;100.00;99543.09;5029052;28;20558;-66
2023/03/09 08:18:30;;;;;;;54.27;32.23;;;;;;;0.17;100.00;99555.03;5032427;28;20394;-66
2023/03/09 08:21:09;;;;;;;58.17;33.10;;;;;;;0.17;100.00;99555.91;5030170;28;20112;-66
2023/03/09 08:23:37;;;;;;;58.83;32.20;;;;;;;0.18;100.00;99559.34;5034789;28;20022;-66
2023/03/09 08:26:03;;;;;;;57.27;32.43;;;;;;;0.20;100.00;99566.25;5041289;28;20074;-66
2023/03/09 08:28:30;;;;;;;54.17;32.57;;;;;;;0.22;100.00;99562.13;5048536;28;20031;-66
2023/03/09 08:30:55;;;;;;;60.80;33.93;;;;;;;0.26;100.00;99573.38;5057482;28;20362;-66
2023/03/09 08:33:20;;;;;;;59.03;34.13;;;;;;;0.28;100.00;99564.13;5056997;28;20101;-66
2023/03/09 08:35:46;;;;;;;61.57;33.13;;;;;;;0.30;100.00;99561.66;5060571;28;20480;-66
2023/03/09 08:38:11;;;;;;;59.43;34.17;;;;;;;0.31;100.00;99574.47;5051179;28;20032;-67
2023/03/09 08:40:38;;;;;;;58.77;33.83;;;;;;;0.33;100.00;99580.53;5040926;28;20022;-66
2023/03/09 08:43:04;;;;;;;59.20;31.93;;;;;;;0.35;100.00;99590.81;5058653;28;20044;-66
2023/03/09 08:45:29;;;;;;;57.27;32.27;;;;;;;0.38;100.00;99606.25;5048068;28;20057;-66
2023/03/09 08:47:54;;;;;;;59.43;32.73;;;;;;;0.40;100.00;99609.78;5053992;28;20040;-66
2023/03/09 08:50:19;;;;;;;61.27;33.10;;;;;;;0.41;100.00;99601.34;5051013;28;20021;-66
2023/03/09 08:52:45;;;;;;;62.83;32.83;;;;;;;0.40;100.00;99585.94;5062004;28;20182;-66
2023/03/09 08:55:11;;;;;;;57.77;32.00;;;;;;;0.41;100.00;99591.16;5060048;28;20032;-66
2023/03/09 08:57:37;;;;;;;59.40;33.77;;;;;;;0.46;100.00;99591.38;5055823;28;20556;-66
2023/03/09 09:00:04;;;;;;;56.57;32.30;;;;;;;0.50;100.00;99605.19;5042221;28;20135;-66
2023/03/09 09:02:29;;;;;;;57.90;33.30;;;;;;;0.53;100.00;99607.88;5055376;28;20032;-66
2023/03/09 09:04:54;;;;;;;55.40;32.03;;;;;;;0.55;100.00;99608.84;5066644;28;20031;-66
2023/03/09 09:07:20;;;;;;;59.30;33.73;;;;;;;0.55;100.00;99630.13;5066421;28;20021;-66
2023/03/09 09:09:45;;;;;;;56.53;30.63;;;;;;;0.59;100.00;99632.03;5059791;28;20349;-66
2023/03/09 09:12:11;;;;;;;55.37;31.37;;;;;;;0.61;100.00;99634.69;5060973;28;20020;-66
2023/03/09 09:14:40;;;;;;;56.40;31.50;;;;;;;0.62;100.00;99635.53;5060500;28;20373;-66
2023/03/09 09:17:08;;;;;;;57.27;31.77;;;;;;;0.62;100.00;99641.53;5063501;28;20040;-66
2023/03/09 09:19:34;;;;;;;57.97;32.37;;;;;;;0.61;100.00;99644.00;5063068;28;20081;-66
2023/03/09 09:21:59;;;;;;;55.10;31.60;;;;;;;0.62;100.00;99646.63;5064634;28;20338;-66
2023/03/09 09:24:25;;;;;;;60.90;32.73;;;;;;;0.62;100.00;99645.72;5063469;28;20063;-66
2023/03/09 09:26:54;;;;;;;56.80;32.63;;;;;;;0.60;100.00;99632.91;5034094;28;20104;-66
2023/03/09 09:29:20;;;;;;;50.83;31.53;;;;;;;0.61;100.00;99634.69;5036088;28;20080;-66
2023/03/09 09:31:45;;;;;;;56.67;32.83;;;;;;;0.63;100.00;99637.31;5031103;28;20083;-66
2023/03/09 09:34:11;;;;;;;58.33;32.50;;;;;;;0.66;100.00;99640.00;5030319;28;20021;-66
2023/03/09 09:36:39;;;;;;;56.93;31.43;;;;;;;0.70;100.00;99639.38;5052971;28;20025;-66
2023/03/09 09:39:04;;;;;;;58.10;33.93;;;;;;;0.70;100.00;99630.03;5041872;28;20032;-66
2023/03/09 09:41:35;;;;;;;59.70;32.13;;;;;;;0.75;100.00;99643.06;5039649;28;20435;-66
2023/03/09 09:44:03;;;;;;;;;;;;;;;0.76;100.00;99656.66;5049109;28;20033;-66
2023/03/09 09:46:31;;;;;;;54.13;29.93;;;;;;;0.77;100.00;99658.44;5049097;28;19916;-66
2023/03/09 09:48:59;;;;;;;53.93;32.20;;;;;;;0.78;100.00;99655.06;5057723;28;20048;-66
2023/03/09 09:51:58;;;;;;;56.80;31.50;;;;;;;0.75;100.00;99655.81;5058733;28;20021;-66
2023/03/09 09:54:23;;;;;;;61.77;34.53;;;;;;;0.74;100.00;99661.69;5049369;28;20064;-66
2023/03/09 09:56:52;;;;;;;55.33;30.67;;;;;;;0.74;100.00;99650.63;5053017;28;20029;-66
2023/03/09 09:59:43;;;;;;;58.83;31.93;;;;;;;0.76;100.00;99657.53;5064649;28;20127;-66
2023/03/09 10:02:09;;;;;;;;;;;;;;;0.78;100.00;99655.97;5035171;28;20041;-66
2023/03/09 10:04:45;;;;;;;52.03;28.37;;;;;;;0.79;100.00;99656.84;5047661;28;19908;-66
2023/03/09 10:07:19;;;;;;;56.67;31.53;;;;;;;0.82;100.00;99663.00;5066796;28;20074;-66
2023/03/09 10:09:51;;;;;;;57.43;31.83;;;;;;;0.87;100.00;99663.22;5053020;28;20536;-67
2023/03/09 10:12:16;;;;;;;55.23;31.83;;;;;;;0.87;100.00;99667.44;5036691;28;20091;-66
2023/03/09 10:14:50;;;;;;;53.37;31.37;;;;;;;0.86;100.00;99671.69;5038723;28;20390;-66
2023/03/09 10:17:21;;;;;;;53.57;30.57;;;;;;;0.89;100.00;99660.75;5048979;28;20115;-66
2023/03/09 10:19:48;;;;;;;54.88;31.00;;;;;;;0.88;100.00;99670.06;5044356;28;20111;-67
2023/03/09 10:22:14;;;;;;;53.80;31.13;;;;;;;0.88;100.00;99664.97;5041361;28;20078;-66
2023/03/09 10:24:50;;;;;;;49.70;29.73;;;;;;;0.90;100.00;99667.63;5032106;28;20120;-66
2023/03/09 10:27:42;;;;;;;58.53;33.07;;;;;;;0.97;100.00;99663.69;5037688;28;20037;-66
2023/03/09 10:30:10;;;;;;;55.22;31.05;;;;;;;1.02;100.00;99658.03;5063813;28;20071;-66
2023/03/09 10:32:42;;;;;;;57.90;33.23;;;;;;;1.12;100.00;99661.94;5064075;28;20077;-66
2023/03/09 10:35:31;;;;;;;61.50;35.07;;;;;;;1.22;100.00;99659.84;5045974;28;20021;-66
2023/03/09 10:37:56;;;;;;;58.87;34.27;;;;;;;1.25;100.00;99660.00;5052310;28;20009;-66
2023/03/09 10:40:34;;;;;;;58.07;33.30;;;;;;;1.22;100.00;99647.97;5052886;28;20047;-66
2023/03/09 10:43:00;;;;;;;59.00;32.63;;;;;;;1.26;100.00;99654.13;5051613;28;20031;-66
2023/03/09 10:45:32;;;;;;;57.77;32.97;;;;;;;1.30;100.00;99661.13;5039321;28;20401;-66
2023/03/09 10:48:05;;;;;;;60.00;33.57;;;;;;;1.34;100.00;99670.69;5044620;28;20024;-66
2023/03/09 10:50:35;;;;;;;52.57;31.47;;;;;;;1.37;100.00;99668.28;5035913;28;20026;-66
2023/03/09 10:53:41;;;;;;;54.57;32.03;;;;;;;1.39;100.00;99673.47;5036091;28;20049;-66
2023/03/09 10:56:19;;;;;;;55.60;30.77;;;;;;;1.43;100.00;99671.16;5033164;28;20033;-66
2023/03/09 10:58:45;;;;;;;51.97;30.03;;;;;;;1.43;100.00;99671.16;5036961;28;20053;-66
2023/03/09 11:01:16;;;;;;;46.77;29.50;;;;;;;1.42;100.00;99674.50;5044157;28;20063;-66
2023/03/09 11:03:43;;;;;;;52.33;29.87;;;;;;;1.48;100.00;99657.72;5051372;28;20078;-66
2023/03/09 11:06:37;;;;;;;49.77;30.30;;;;;;;1.54;100.00;99669.16;5050616;28;20106;-66
2023/03/09 11:09:13;;;;;;;49.73;29.00;;;;;;;1.62;100.00;99666.97;5064856;28;20081;-66
2023/03/09 11:11:40;;;;;;;55.33;30.63;;;;;;;1.64;100.00;99667.91;5060877;28;20048;-66